sensor_id;sensor_type;location;lat;lon;timestamp;P1;durP1;ratioP1;P2;durP2;ratioP2
22064;SDS011;11197;53.110;8.468;2023-03-31T00:01:34;16.45;;;3.30;;
22064;SDS011;11197;53.110;8.468;2023-03-31T00:04:01;11.23;;;3.00;;
22064;SDS011;11197;53.110;8.468;2023-03-31T00:06:30;17.67;;;3.30;;
22064;SDS011;11197;53.110;8.468;2023-03-31T00:09:03;14.55;;;2.90;;
22064;SDS011;11197;53.110;8.468;2023-03-31T00:11:29;17.10;;;3.15;;
22064;SDS011;11197;53.110;8.468;2023-03-31T00:13:55;13.75;;;2.92;;
22064;SDS011;11197;53.110;8.468;2023-03-31T00:16:21;14.52;;;3.17;;
22064;SDS011;11197;53.110;8.468;2023-03-31T00:18:47;19.45;;;3.40;;
22064;SDS011;11197;53.110;8.468;2023-03-31T00:21:19;13.90;;;3.47;;
22064;SDS011;11197;53.110;8.468;2023-03-31T00:23:53;13.70;;;3.17;;
22064;SDS011;11197;53.110;8.468;2023-03-31T00:26:24;17.05;;;3.08;;
22064;SDS011;11197;53.110;8.468;2023-03-31T00:28:51;12.90;;;2.60;;
22064;SDS011;11197;53.110;8.468;2023-03-31T00:31:17;13.60;;;2.90;;
22064;SDS011;11197;53.110;8.468;2023-03-31T00:33:43;11.95;;;2.58;;
22064;SDS011;11197;53.110;8.468;2023-03-31T00:36:09;14.80;;;2.78;;
22064;SDS011;11197;53.110;8.468;2023-03-31T00:38:35;11.65;;;2.80;;
22064;SDS011;11197;53.110;8.468;2023-03-31T00:41:01;18.25;;;2.95;;
22064;SDS011;11197;53.110;8.468;2023-03-31T00:43:30;15.57;;;2.70;;
22064;SDS011;11197;53.110;8.468;2023-03-31T00:45:59;15.73;;;2.83;;
22064;SDS011;11197;53.110;8.468;2023-03-31T00:48:31;13.52;;;2.95;;
22064;SDS011;11197;53.110;8.468;2023-03-31T00:50:58;13.10;;;2.75;;
22064;SDS011;11197;53.110;8.468;2023-03-31T00:53:30;12.25;;;2.45;;
22064;SDS011;11197;53.110;8.468;2023-03-31T00:56:01;14.18;;;2.63;;
22064;SDS011;11197;53.110;8.468;2023-03-31T00:58:31;15.82;;;3.20;;
22064;SDS011;11197;53.110;8.468;2023-03-31T01:00:57;12.38;;;2.40;;
22064;SDS011;11197;53.110;8.468;2023-03-31T01:03:27;17.67;;;2.73;;
22064;SDS011;11197;53.110;8.468;2023-03-31T01:05:59;13.20;;;2.80;;
22064;SDS011;11197;53.110;8.468;2023-03-31T01:08:29;13.10;;;3.15;;
22064;SDS011;11197;53.110;8.468;2023-03-31T01:10:58;14.30;;;2.78;;
22064;SDS011;11197;53.110;8.468;2023-03-31T01:13:27;13.52;;;2.55;;
22064;SDS011;11197;53.110;8.468;2023-03-31T01:15:55;15.43;;;2.72;;
22064;SDS011;11197;53.110;8.468;2023-03-31T01:18:20;12.38;;;2.58;;
22064;SDS011;11197;53.110;8.468;2023-03-31T01:21:12;16.58;;;2.60;;
22064;SDS011;11197;53.110;8.468;2023-03-31T01:29:33;13.98;;;2.30;;
22064;SDS011;11197;53.110;8.468;2023-03-31T01:38:14;13.80;;;2.53;;
22064;SDS011;11197;53.110;8.468;2023-03-31T01:46:30;14.45;;;2.92;;
22064;SDS011;11197;53.110;8.468;2023-03-31T01:49:14;20.20;;;3.55;;
22064;SDS011;11197;53.110;8.468;2023-03-31T01:51:54;12.55;;;2.75;;
22064;SDS011;11197;53.110;8.468;2023-03-31T01:54:34;14.40;;;3.00;;
22064;SDS011;11197;53.110;8.468;2023-03-31T02:00:02;15.45;;;3.58;;
22064;SDS011;11197;53.110;8.468;2023-03-31T02:02:43;12.82;;;3.60;;
22064;SDS011;11197;53.110;8.468;2023-03-31T02:05:40;11.82;;;3.15;;
22064;SDS011;11197;53.110;8.468;2023-03-31T02:08:41;15.02;;;3.20;;
22064;SDS011;11197;53.110;8.468;2023-03-31T02:11:12;11.48;;;3.05;;
22064;SDS011;11197;53.110;8.468;2023-03-31T02:13:39;13.18;;;3.55;;
22064;SDS011;11197;53.110;8.468;2023-03-31T02:16:11;13.30;;;3.22;;
22064;SDS011;11197;53.110;8.468;2023-03-31T02:18:43;14.38;;;3.30;;
22064;SDS011;11197;53.110;8.468;2023-03-31T02:21:10;16.30;;;3.90;;
22064;SDS011;11197;53.110;8.468;2023-03-31T02:23:38;17.08;;;3.65;;
22064;SDS011;11197;53.110;8.468;2023-03-31T02:29:02;13.57;;;4.32;;
22064;SDS011;11197;53.110;8.468;2023-03-31T02:31:36;14.50;;;3.97;;
22064;SDS011;11197;53.110;8.468;2023-03-31T02:34:10;14.30;;;4.40;;
22064;SDS011;11197;53.110;8.468;2023-03-31T02:36:36;12.10;;;3.83;;
22064;SDS011;11197;53.110;8.468;2023-03-31T02:39:06;13.50;;;3.95;;
22064;SDS011;11197;53.110;8.468;2023-03-31T02:41:35;11.93;;;3.55;;
22064;SDS011;11197;53.110;8.468;2023-03-31T02:44:02;14.55;;;3.92;;
22064;SDS011;11197;53.110;8.468;2023-03-31T02:46:28;12.88;;;3.90;;
22064;SDS011;11197;53.110;8.468;2023-03-31T03:14:43;15.10;;;4.00;;
22064;SDS011;11197;53.110;8.468;2023-03-31T03:19:41;14.43;;;4.07;;
22064;SDS011;11197;53.110;8.468;2023-03-31T03:22:07;12.30;;;4.07;;
22064;SDS011;11197;53.110;8.468;2023-03-31T03:24:33;15.98;;;3.88;;
22064;SDS011;11197;53.110;8.468;2023-03-31T03:26:59;15.27;;;4.30;;
22064;SDS011;11197;53.110;8.468;2023-03-31T03:29:25;15.00;;;4.45;;
22064;SDS011;11197;53.110;8.468;2023-03-31T03:31:52;18.42;;;4.30;;
22064;SDS011;11197;53.110;8.468;2023-03-31T03:34:18;13.93;;;3.30;;
22064;SDS011;11197;53.110;8.468;2023-03-31T03:36:44;12.52;;;3.38;;
22064;SDS011;11197;53.110;8.468;2023-03-31T03:39:11;13.95;;;3.42;;
22064;SDS011;11197;53.110;8.468;2023-03-31T03:41:36;11.60;;;2.78;;
22064;SDS011;11197;53.110;8.468;2023-03-31T03:44:02;14.82;;;3.83;;
22064;SDS011;11197;53.110;8.468;2023-03-31T03:46:32;16.73;;;3.47;;
22064;SDS011;11197;53.110;8.468;2023-03-31T03:48:57;10.48;;;3.45;;
22064;SDS011;11197;53.110;8.468;2023-03-31T03:51:23;10.85;;;3.40;;
22064;SDS011;11197;53.110;8.468;2023-03-31T03:53:49;11.85;;;3.88;;
22064;SDS011;11197;53.110;8.468;2023-03-31T03:56:15;14.27;;;3.63;;
22064;SDS011;11197;53.110;8.468;2023-03-31T03:58:41;12.70;;;3.30;;
22064;SDS011;11197;53.110;8.468;2023-03-31T04:01:06;13.85;;;3.00;;
22064;SDS011;11197;53.110;8.468;2023-03-31T04:03:32;12.73;;;3.38;;
22064;SDS011;11197;53.110;8.468;2023-03-31T04:05:58;12.10;;;2.90;;
22064;SDS011;11197;53.110;8.468;2023-03-31T04:08:24;10.90;;;2.90;;
22064;SDS011;11197;53.110;8.468;2023-03-31T04:10:49;11.15;;;2.83;;
22064;SDS011;11197;53.110;8.468;2023-03-31T04:13:16;9.73;;;2.53;;
22064;SDS011;11197;53.110;8.468;2023-03-31T04:15:43;14.60;;;2.97;;
22064;SDS011;11197;53.110;8.468;2023-03-31T04:18:09;10.38;;;2.75;;
22064;SDS011;11197;53.110;8.468;2023-03-31T04:20:43;11.32;;;2.90;;
22064;SDS011;11197;53.110;8.468;2023-03-31T04:23:09;12.70;;;2.60;;
22064;SDS011;11197;53.110;8.468;2023-03-31T04:25:39;15.27;;;2.63;;
22064;SDS011;11197;53.110;8.468;2023-03-31T04:28:13;11.00;;;2.80;;
22064;SDS011;11197;53.110;8.468;2023-03-31T04:30:39;10.93;;;2.38;;
22064;SDS011;11197;53.110;8.468;2023-03-31T04:33:05;11.85;;;2.63;;
22064;SDS011;11197;53.110;8.468;2023-03-31T04:35:30;8.77;;;2.40;;
22064;SDS011;11197;53.110;8.468;2023-03-31T04:38:21;17.02;;;3.03;;
22064;SDS011;11197;53.110;8.468;2023-03-31T04:43:17;12.70;;;2.55;;
22064;SDS011;11197;53.110;8.468;2023-03-31T04:45:44;11.70;;;2.60;;
22064;SDS011;11197;53.110;8.468;2023-03-31T04:48:10;9.82;;;2.45;;
22064;SDS011;11197;53.110;8.468;2023-03-31T04:50:37;7.55;;;2.08;;
22064;SDS011;11197;53.110;8.468;2023-03-31T04:53:03;8.80;;;2.45;;
22064;SDS011;11197;53.110;8.468;2023-03-31T04:55:30;12.13;;;2.95;;
22064;SDS011;11197;53.110;8.468;2023-03-31T04:57:56;12.02;;;2.67;;
22064;SDS011;11197;53.110;8.468;2023-03-31T05:00:21;8.88;;;2.35;;
22064;SDS011;11197;53.110;8.468;2023-03-31T05:02:47;10.57;;;2.50;;
22064;SDS011;11197;53.110;8.468;2023-03-31T05:05:14;13.60;;;3.20;;
22064;SDS011;11197;53.110;8.468;2023-03-31T05:07:40;10.18;;;3.00;;
22064;SDS011;11197;53.110;8.468;2023-03-31T05:10:06;9.77;;;3.10;;
22064;SDS011;11197;53.110;8.468;2023-03-31T05:12:35;10.88;;;3.28;;
22064;SDS011;11197;53.110;8.468;2023-03-31T05:15:05;10.60;;;3.33;;
22064;SDS011;11197;53.110;8.468;2023-03-31T05:17:32;11.38;;;3.55;;
22064;SDS011;11197;53.110;8.468;2023-03-31T05:19:59;11.02;;;3.72;;
22064;SDS011;11197;53.110;8.468;2023-03-31T05:22:26;12.65;;;3.70;;
22064;SDS011;11197;53.110;8.468;2023-03-31T05:24:52;10.20;;;4.15;;
22064;SDS011;11197;53.110;8.468;2023-03-31T05:27:18;10.27;;;4.30;;
22064;SDS011;11197;53.110;8.468;2023-03-31T05:29:46;12.73;;;4.72;;
22064;SDS011;11197;53.110;8.468;2023-03-31T05:32:11;10.25;;;4.57;;
22064;SDS011;11197;53.110;8.468;2023-03-31T05:34:37;12.38;;;4.57;;
22064;SDS011;11197;53.110;8.468;2023-03-31T05:37:03;11.77;;;4.63;;
22064;SDS011;11197;53.110;8.468;2023-03-31T05:39:29;12.63;;;5.40;;
22064;SDS011;11197;53.110;8.468;2023-03-31T05:41:57;14.43;;;6.13;;
22064;SDS011;11197;53.110;8.468;2023-03-31T05:44:23;13.23;;;5.97;;
22064;SDS011;11197;53.110;8.468;2023-03-31T05:46:50;14.50;;;5.90;;
22064;SDS011;11197;53.110;8.468;2023-03-31T05:49:16;13.23;;;5.82;;
22064;SDS011;11197;53.110;8.468;2023-03-31T05:51:42;14.50;;;6.80;;
22064;SDS011;11197;53.110;8.468;2023-03-31T05:54:08;13.68;;;6.22;;
22064;SDS011;11197;53.110;8.468;2023-03-31T05:56:34;15.75;;;7.47;;
22064;SDS011;11197;53.110;8.468;2023-03-31T05:59:00;16.13;;;7.05;;
22064;SDS011;11197;53.110;8.468;2023-03-31T06:01:26;15.23;;;7.53;;
22064;SDS011;11197;53.110;8.468;2023-03-31T06:03:54;15.10;;;7.93;;
22064;SDS011;11197;53.110;8.468;2023-03-31T06:06:20;17.33;;;8.30;;
22064;SDS011;11197;53.110;8.468;2023-03-31T06:08:47;21.10;;;7.53;;
22064;SDS011;11197;53.110;8.468;2023-03-31T06:11:15;17.60;;;8.80;;
22064;SDS011;11197;53.110;8.468;2023-03-31T06:13:43;17.98;;;8.63;;
22064;SDS011;11197;53.110;8.468;2023-03-31T06:16:10;16.00;;;8.52;;
22064;SDS011;11197;53.110;8.468;2023-03-31T06:18:37;15.30;;;8.02;;
22064;SDS011;11197;53.110;8.468;2023-03-31T06:21:04;13.23;;;8.38;;
22064;SDS011;11197;53.110;8.468;2023-03-31T06:23:30;13.77;;;8.10;;
22064;SDS011;11197;53.110;8.468;2023-03-31T06:26:04;11.20;;;6.85;;
22064;SDS011;11197;53.110;8.468;2023-03-31T06:28:35;15.48;;;8.05;;
22064;SDS011;11197;53.110;8.468;2023-03-31T06:31:02;14.73;;;8.40;;
22064;SDS011;11197;53.110;8.468;2023-03-31T06:33:33;12.98;;;7.97;;
22064;SDS011;11197;53.110;8.468;2023-03-31T06:36:00;16.58;;;8.85;;
22064;SDS011;11197;53.110;8.468;2023-03-31T06:38:29;15.00;;;7.63;;
22064;SDS011;11197;53.110;8.468;2023-03-31T06:40:55;14.30;;;8.93;;
22064;SDS011;11197;53.110;8.468;2023-03-31T06:43:21;15.45;;;9.30;;
22064;SDS011;11197;53.110;8.468;2023-03-31T06:45:47;17.45;;;9.57;;
22064;SDS011;11197;53.110;8.468;2023-03-31T06:48:13;14.65;;;9.55;;
22064;SDS011;11197;53.110;8.468;2023-03-31T06:50:40;16.75;;;9.68;;
22064;SDS011;11197;53.110;8.468;2023-03-31T06:53:07;15.38;;;9.23;;
22064;SDS011;11197;53.110;8.468;2023-03-31T06:55:34;18.23;;;9.63;;
22064;SDS011;11197;53.110;8.468;2023-03-31T06:58:00;13.38;;;8.13;;
22064;SDS011;11197;53.110;8.468;2023-03-31T07:00:26;12.65;;;8.57;;
22064;SDS011;11197;53.110;8.468;2023-03-31T07:02:52;13.30;;;8.80;;
22064;SDS011;11197;53.110;8.468;2023-03-31T07:05:19;15.00;;;8.98;;
22064;SDS011;11197;53.110;8.468;2023-03-31T07:07:51;11.85;;;8.15;;
22064;SDS011;11197;53.110;8.468;2023-03-31T07:10:21;12.07;;;8.27;;
22064;SDS011;11197;53.110;8.468;2023-03-31T07:12:48;13.02;;;8.63;;
22064;SDS011;11197;53.110;8.468;2023-03-31T07:15:14;12.35;;;8.48;;
22064;SDS011;11197;53.110;8.468;2023-03-31T07:17:40;13.68;;;8.82;;
22064;SDS011;11197;53.110;8.468;2023-03-31T07:20:10;16.25;;;9.35;;
22064;SDS011;11197;53.110;8.468;2023-03-31T07:22:39;13.70;;;8.27;;
22064;SDS011;11197;53.110;8.468;2023-03-31T07:25:10;16.45;;;9.65;;
22064;SDS011;11197;53.110;8.468;2023-03-31T07:27:37;11.45;;;8.48;;
22064;SDS011;11197;53.110;8.468;2023-03-31T07:30:04;16.00;;;11.65;;
22064;SDS011;11197;53.110;8.468;2023-03-31T07:32:31;16.05;;;11.10;;
22064;SDS011;11197;53.110;8.468;2023-03-31T07:34:57;15.20;;;11.77;;
22064;SDS011;11197;53.110;8.468;2023-03-31T07:37:24;18.75;;;12.43;;
22064;SDS011;11197;53.110;8.468;2023-03-31T07:39:50;15.35;;;12.15;;
22064;SDS011;11197;53.110;8.468;2023-03-31T07:42:16;15.77;;;11.93;;
22064;SDS011;11197;53.110;8.468;2023-03-31T07:44:42;15.23;;;11.27;;
22064;SDS011;11197;53.110;8.468;2023-03-31T07:47:09;16.92;;;12.35;;
22064;SDS011;11197;53.110;8.468;2023-03-31T07:49:35;16.02;;;11.77;;
22064;SDS011;11197;53.110;8.468;2023-03-31T07:52:01;20.00;;;12.40;;
22064;SDS011;11197;53.110;8.468;2023-03-31T07:54:27;18.25;;;12.95;;
22064;SDS011;11197;53.110;8.468;2023-03-31T07:56:53;18.15;;;12.10;;
22064;SDS011;11197;53.110;8.468;2023-03-31T07:59:19;20.70;;;12.95;;
22064;SDS011;11197;53.110;8.468;2023-03-31T08:01:46;16.42;;;12.60;;
22064;SDS011;11197;53.110;8.468;2023-03-31T08:04:11;17.98;;;12.93;;
22064;SDS011;11197;53.110;8.468;2023-03-31T08:06:38;17.15;;;13.02;;
22064;SDS011;11197;53.110;8.468;2023-03-31T08:09:04;17.85;;;12.75;;
22064;SDS011;11197;53.110;8.468;2023-03-31T08:11:33;17.15;;;12.48;;
22064;SDS011;11197;53.110;8.468;2023-03-31T08:13:59;19.27;;;13.20;;
22064;SDS011;11197;53.110;8.468;2023-03-31T08:16:25;17.02;;;12.35;;
22064;SDS011;11197;53.110;8.468;2023-03-31T08:18:51;19.23;;;12.00;;
22064;SDS011;11197;53.110;8.468;2023-03-31T08:21:17;17.50;;;12.38;;
22064;SDS011;11197;53.110;8.468;2023-03-31T08:23:43;19.58;;;12.13;;
22064;SDS011;11197;53.110;8.468;2023-03-31T08:26:13;16.95;;;11.25;;
22064;SDS011;11197;53.110;8.468;2023-03-31T08:28:44;15.27;;;10.02;;
22064;SDS011;11197;53.110;8.468;2023-03-31T08:31:12;15.18;;;10.25;;
22064;SDS011;11197;53.110;8.468;2023-03-31T08:33:40;13.82;;;10.15;;
22064;SDS011;11197;53.110;8.468;2023-03-31T08:36:07;17.23;;;9.85;;
22064;SDS011;11197;53.110;8.468;2023-03-31T08:38:38;13.63;;;9.50;;
22064;SDS011;11197;53.110;8.468;2023-03-31T08:41:07;13.43;;;9.90;;
22064;SDS011;11197;53.110;8.468;2023-03-31T08:44:00;16.98;;;10.02;;
22064;SDS011;11197;53.110;8.468;2023-03-31T08:46:30;14.50;;;9.50;;
22064;SDS011;11197;53.110;8.468;2023-03-31T08:48:59;16.35;;;10.80;;
22064;SDS011;11197;53.110;8.468;2023-03-31T08:51:28;13.38;;;9.98;;
22064;SDS011;11197;53.110;8.468;2023-03-31T08:56:29;14.20;;;10.13;;
22064;SDS011;11197;53.110;8.468;2023-03-31T08:58:58;15.93;;;9.82;;
22064;SDS011;11197;53.110;8.468;2023-03-31T09:13:13;12.68;;;8.40;;
22064;SDS011;11197;53.110;8.468;2023-03-31T09:18:38;13.27;;;8.20;;
22064;SDS011;11197;53.110;8.468;2023-03-31T09:27:10;11.93;;;7.32;;
22064;SDS011;11197;53.110;8.468;2023-03-31T09:29:21;10.15;;;6.90;;
22064;SDS011;11197;53.110;8.468;2023-03-31T09:31:53;10.18;;;6.10;;
22064;SDS011;11197;53.110;8.468;2023-03-31T09:34:29;11.10;;;5.97;;
22064;SDS011;11197;53.110;8.468;2023-03-31T09:36:57;10.10;;;5.60;;
22064;SDS011;11197;53.110;8.468;2023-03-31T09:39:23;11.07;;;5.40;;
22064;SDS011;11197;53.110;8.468;2023-03-31T09:41:49;9.55;;;5.00;;
22064;SDS011;11197;53.110;8.468;2023-03-31T09:44:38;10.38;;;5.18;;
22064;SDS011;11197;53.110;8.468;2023-03-31T09:47:50;10.20;;;5.60;;
22064;SDS011;11197;53.110;8.468;2023-03-31T09:49:57;9.30;;;5.55;;
22064;SDS011;11197;53.110;8.468;2023-03-31T09:52:30;11.77;;;5.82;;
22064;SDS011;11197;53.110;8.468;2023-03-31T09:57:44;11.68;;;5.38;;
22064;SDS011;11197;53.110;8.468;2023-03-31T10:02:53;10.17;;;5.33;;
22064;SDS011;11197;53.110;8.468;2023-03-31T10:05:47;9.50;;;5.50;;
22064;SDS011;11197;53.110;8.468;2023-03-31T10:10:55;9.95;;;5.43;;
22064;SDS011;11197;53.110;8.468;2023-03-31T10:13:29;9.85;;;5.50;;
22064;SDS011;11197;53.110;8.468;2023-03-31T10:16:10;11.52;;;5.93;;
22064;SDS011;11197;53.110;8.468;2023-03-31T10:18:51;11.30;;;5.95;;
22064;SDS011;11197;53.110;8.468;2023-03-31T10:21:27;8.65;;;5.50;;
22064;SDS011;11197;53.110;8.468;2023-03-31T10:24:00;10.90;;;5.30;;
22064;SDS011;11197;53.110;8.468;2023-03-31T10:26:34;13.00;;;6.30;;
22064;SDS011;11197;53.110;8.468;2023-03-31T10:29:00;14.00;;;6.97;;
22064;SDS011;11197;53.110;8.468;2023-03-31T10:31:34;13.93;;;6.43;;
22064;SDS011;11197;53.110;8.468;2023-03-31T10:34:05;12.80;;;6.50;;
22064;SDS011;11197;53.110;8.468;2023-03-31T10:36:33;13.10;;;6.45;;
22064;SDS011;11197;53.110;8.468;2023-03-31T10:38:59;10.63;;;5.40;;
22064;SDS011;11197;53.110;8.468;2023-03-31T10:41:31;15.65;;;6.47;;
22064;SDS011;11197;53.110;8.468;2023-03-31T10:43:58;12.20;;;6.03;;
22064;SDS011;11197;53.110;8.468;2023-03-31T10:49:26;10.90;;;6.07;;
22064;SDS011;11197;53.110;8.468;2023-03-31T10:51:56;11.23;;;5.47;;
22064;SDS011;11197;53.110;8.468;2023-03-31T10:54:23;10.07;;;5.00;;
22064;SDS011;11197;53.110;8.468;2023-03-31T10:56:50;9.85;;;5.00;;
22064;SDS011;11197;53.110;8.468;2023-03-31T11:11:10;12.32;;;5.13;;
22064;SDS011;11197;53.110;8.468;2023-03-31T11:13:59;8.07;;;4.75;;
22064;SDS011;11197;53.110;8.468;2023-03-31T11:19:08;11.88;;;5.43;;
22064;SDS011;11197;53.110;8.468;2023-03-31T11:24:32;13.63;;;5.90;;
22064;SDS011;11197;53.110;8.468;2023-03-31T11:27:23;12.52;;;5.88;;
22064;SDS011;11197;53.110;8.468;2023-03-31T11:32:32;10.43;;;5.10;;
22064;SDS011;11197;53.110;8.468;2023-03-31T11:41:07;6.93;;;4.13;;
22064;SDS011;11197;53.110;8.468;2023-03-31T11:43:46;7.90;;;3.67;;
22064;SDS011;11197;53.110;8.468;2023-03-31T11:46:59;8.32;;;3.65;;
22064;SDS011;11197;53.110;8.468;2023-03-31T11:49:29;6.20;;;2.83;;
22064;SDS011;11197;53.110;8.468;2023-03-31T11:55:00;7.00;;;3.33;;
22064;SDS011;11197;53.110;8.468;2023-03-31T11:57:51;5.60;;;3.20;;
22064;SDS011;11197;53.110;8.468;2023-03-31T12:04:04;7.72;;;3.20;;
22064;SDS011;11197;53.110;8.468;2023-03-31T12:06:12;5.00;;;2.72;;
22064;SDS011;11197;53.110;8.468;2023-03-31T12:11:33;5.78;;;2.80;;
22064;SDS011;11197;53.110;8.468;2023-03-31T12:14:31;6.75;;;2.92;;
22064;SDS011;11197;53.110;8.468;2023-03-31T12:17:17;5.30;;;2.90;;
22064;SDS011;11197;53.110;8.468;2023-03-31T12:19:53;5.47;;;3.10;;
22064;SDS011;11197;53.110;8.468;2023-03-31T12:22:27;4.82;;;3.08;;
22064;SDS011;11197;53.110;8.468;2023-03-31T12:25:02;5.32;;;2.90;;
22064;SDS011;11197;53.110;8.468;2023-03-31T12:27:44;6.18;;;2.65;;
22064;SDS011;11197;53.110;8.468;2023-03-31T12:32:53;4.55;;;2.63;;
22064;SDS011;11197;53.110;8.468;2023-03-31T12:35:22;5.20;;;2.40;;
22064;SDS011;11197;53.110;8.468;2023-03-31T12:38:14;4.65;;;2.60;;
22064;SDS011;11197;53.110;8.468;2023-03-31T12:40:59;3.58;;;2.47;;
22064;SDS011;11197;53.110;8.468;2023-03-31T13:04:46;4.53;;;1.60;;
22064;SDS011;11197;53.110;8.468;2023-03-31T13:09:49;3.92;;;1.67;;
22064;SDS011;11197;53.110;8.468;2023-03-31T13:12:38;3.22;;;2.00;;
22064;SDS011;11197;53.110;8.468;2023-03-31T13:15:05;4.50;;;1.90;;
22064;SDS011;11197;53.110;8.468;2023-03-31T13:17:39;5.10;;;2.10;;
22064;SDS011;11197;53.110;8.468;2023-03-31T13:22:59;4.07;;;1.80;;
22064;SDS011;11197;53.110;8.468;2023-03-31T13:27:54;6.30;;;2.28;;
22064;SDS011;11197;53.110;8.468;2023-03-31T13:33:18;4.10;;;2.17;;
22064;SDS011;11197;53.110;8.468;2023-03-31T13:35:50;4.63;;;2.60;;
22064;SDS011;11197;53.110;8.468;2023-03-31T13:41:30;5.57;;;2.97;;
22064;SDS011;11197;53.110;8.468;2023-03-31T13:52:02;5.82;;;2.92;;
22064;SDS011;11197;53.110;8.468;2023-03-31T13:57:27;7.45;;;3.15;;
22064;SDS011;11197;53.110;8.468;2023-03-31T14:00:27;6.38;;;2.85;;
22064;SDS011;11197;53.110;8.468;2023-03-31T14:05:59;5.82;;;2.40;;
22064;SDS011;11197;53.110;8.468;2023-03-31T14:08:50;7.45;;;2.17;;
22064;SDS011;11197;53.110;8.468;2023-03-31T14:11:37;5.13;;;2.60;;
22064;SDS011;11197;53.110;8.468;2023-03-31T14:14:04;6.65;;;2.80;;
22064;SDS011;11197;53.110;8.468;2023-03-31T14:16:44;8.45;;;2.63;;
22064;SDS011;11197;53.110;8.468;2023-03-31T14:19:24;6.75;;;2.00;;
22064;SDS011;11197;53.110;8.468;2023-03-31T14:24:42;5.05;;;2.08;;
22064;SDS011;11197;53.110;8.468;2023-03-31T14:38:09;6.55;;;2.40;;
22064;SDS011;11197;53.110;8.468;2023-03-31T14:40:51;7.43;;;2.50;;
22064;SDS011;11197;53.110;8.468;2023-03-31T14:43:21;6.10;;;2.30;;
22064;SDS011;11197;53.110;8.468;2023-03-31T14:45:56;8.07;;;2.70;;
22064;SDS011;11197;53.110;8.468;2023-03-31T14:48:23;6.43;;;2.75;;
22064;SDS011;11197;53.110;8.468;2023-03-31T14:50:55;6.80;;;3.00;;
22064;SDS011;11197;53.110;8.468;2023-03-31T14:53:23;9.27;;;3.92;;
22064;SDS011;11197;53.110;8.468;2023-03-31T14:55:50;8.15;;;4.00;;
22064;SDS011;11197;53.110;8.468;2023-03-31T14:58:46;6.32;;;3.20;;
22064;SDS011;11197;53.110;8.468;2023-03-31T15:01:14;10.57;;;3.67;;
22064;SDS011;11197;53.110;8.468;2023-03-31T15:03:44;11.38;;;3.63;;
22064;SDS011;11197;53.110;8.468;2023-03-31T15:06:11;10.63;;;2.92;;
22064;SDS011;11197;53.110;8.468;2023-03-31T15:08:39;7.57;;;2.97;;
22064;SDS011;11197;53.110;8.468;2023-03-31T15:11:09;6.10;;;2.80;;
22064;SDS011;11197;53.110;8.468;2023-03-31T15:13:43;8.40;;;2.60;;
22064;SDS011;11197;53.110;8.468;2023-03-31T15:21:44;7.75;;;2.40;;
22064;SDS011;11197;53.110;8.468;2023-03-31T15:24:12;6.03;;;2.42;;
22064;SDS011;11197;53.110;8.468;2023-03-31T15:29:21;8.20;;;2.75;;
22064;SDS011;11197;53.110;8.468;2023-03-31T15:31:58;9.30;;;2.70;;
22064;SDS011;11197;53.110;8.468;2023-03-31T15:34:25;7.13;;;2.50;;
22064;SDS011;11197;53.110;8.468;2023-03-31T15:36:55;6.15;;;2.45;;
22064;SDS011;11197;53.110;8.468;2023-03-31T15:39:25;6.43;;;2.47;;
22064;SDS011;11197;53.110;8.468;2023-03-31T15:41:53;7.60;;;2.60;;
22064;SDS011;11197;53.110;8.468;2023-03-31T15:44:37;8.55;;;2.50;;
22064;SDS011;11197;53.110;8.468;2023-03-31T15:47:14;6.38;;;2.33;;
22064;SDS011;11197;53.110;8.468;2023-03-31T15:49:57;8.68;;;2.60;;
22064;SDS011;11197;53.110;8.468;2023-03-31T15:52:34;7.05;;;2.63;;
22064;SDS011;11197;53.110;8.468;2023-03-31T15:55:16;8.32;;;2.40;;
22064;SDS011;11197;53.110;8.468;2023-03-31T15:57:47;11.88;;;2.90;;
22064;SDS011;11197;53.110;8.468;2023-03-31T16:01:00;9.82;;;3.05;;
22064;SDS011;11197;53.110;8.468;2023-03-31T16:03:33;9.07;;;2.95;;
22064;SDS011;11197;53.110;8.468;2023-03-31T16:06:04;8.98;;;2.60;;
22064;SDS011;11197;53.110;8.468;2023-03-31T16:08:40;8.77;;;2.70;;
22064;SDS011;11197;53.110;8.468;2023-03-31T16:11:21;9.15;;;3.30;;
22064;SDS011;11197;53.110;8.468;2023-03-31T16:13:54;9.13;;;2.80;;
22064;SDS011;11197;53.110;8.468;2023-03-31T16:16:23;7.50;;;3.10;;
22064;SDS011;11197;53.110;8.468;2023-03-31T16:18:53;9.35;;;3.30;;
22064;SDS011;11197;53.110;8.468;2023-03-31T16:21:46;10.48;;;3.20;;
22064;SDS011;11197;53.110;8.468;2023-03-31T16:26:44;8.93;;;3.42;;
22064;SDS011;11197;53.110;8.468;2023-03-31T16:29:18;9.23;;;3.38;;
22064;SDS011;11197;53.110;8.468;2023-03-31T16:31:48;9.80;;;3.10;;
22064;SDS011;11197;53.110;8.468;2023-03-31T16:34:14;7.30;;;3.00;;
22064;SDS011;11197;53.110;8.468;2023-03-31T16:36:40;7.35;;;3.08;;
22064;SDS011;11197;53.110;8.468;2023-03-31T16:39:06;8.75;;;2.90;;
22064;SDS011;11197;53.110;8.468;2023-03-31T16:41:33;8.52;;;2.72;;
22064;SDS011;11197;53.110;8.468;2023-03-31T16:44:01;6.70;;;2.40;;
22064;SDS011;11197;53.110;8.468;2023-03-31T16:46:28;8.52;;;2.70;;
22064;SDS011;11197;53.110;8.468;2023-03-31T16:48:53;5.63;;;2.33;;
22064;SDS011;11197;53.110;8.468;2023-03-31T16:51:20;6.07;;;2.45;;
22064;SDS011;11197;53.110;8.468;2023-03-31T16:53:47;6.22;;;2.42;;
22064;SDS011;11197;53.110;8.468;2023-03-31T16:56:13;5.55;;;2.30;;
22064;SDS011;11197;53.110;8.468;2023-03-31T16:58:40;7.78;;;2.75;;
22064;SDS011;11197;53.110;8.468;2023-03-31T17:01:07;6.60;;;2.60;;
22064;SDS011;11197;53.110;8.468;2023-03-31T17:03:34;8.18;;;2.92;;
22064;SDS011;11197;53.110;8.468;2023-03-31T17:06:06;8.35;;;3.10;;
22064;SDS011;11197;53.110;8.468;2023-03-31T17:08:37;7.05;;;2.65;;
22064;SDS011;11197;53.110;8.468;2023-03-31T17:11:07;5.10;;;2.80;;
22064;SDS011;11197;53.110;8.468;2023-03-31T17:13:38;9.95;;;3.10;;
22064;SDS011;11197;53.110;8.468;2023-03-31T17:16:06;7.30;;;2.72;;
22064;SDS011;11197;53.110;8.468;2023-03-31T17:18:33;7.97;;;2.92;;
22064;SDS011;11197;53.110;8.468;2023-03-31T17:21:06;7.07;;;2.80;;
22064;SDS011;11197;53.110;8.468;2023-03-31T17:23:34;9.23;;;3.45;;
22064;SDS011;11197;53.110;8.468;2023-03-31T17:26:02;5.53;;;2.70;;
22064;SDS011;11197;53.110;8.468;2023-03-31T17:28:31;7.53;;;3.07;;
22064;SDS011;11197;53.110;8.468;2023-03-31T17:30:57;8.73;;;3.20;;
22064;SDS011;11197;53.110;8.468;2023-03-31T17:33:24;5.55;;;2.80;;
22064;SDS011;11197;53.110;8.468;2023-03-31T17:35:53;8.00;;;3.25;;
22064;SDS011;11197;53.110;8.468;2023-03-31T17:38:21;7.43;;;2.95;;
22064;SDS011;11197;53.110;8.468;2023-03-31T17:40:47;6.85;;;3.05;;
22064;SDS011;11197;53.110;8.468;2023-03-31T17:43:12;8.07;;;2.95;;
22064;SDS011;11197;53.110;8.468;2023-03-31T17:45:38;7.95;;;2.90;;
22064;SDS011;11197;53.110;8.468;2023-03-31T17:48:05;7.00;;;3.15;;
22064;SDS011;11197;53.110;8.468;2023-03-31T17:50:31;8.60;;;3.13;;
22064;SDS011;11197;53.110;8.468;2023-03-31T17:52:57;6.43;;;2.85;;
22064;SDS011;11197;53.110;8.468;2023-03-31T17:55:23;7.55;;;3.30;;
22064;SDS011;11197;53.110;8.468;2023-03-31T17:57:49;9.68;;;3.17;;
22064;SDS011;11197;53.110;8.468;2023-03-31T18:00:15;6.10;;;3.10;;
22064;SDS011;11197;53.110;8.468;2023-03-31T18:02:41;7.80;;;3.20;;
22064;SDS011;11197;53.110;8.468;2023-03-31T18:05:08;8.90;;;3.50;;
22064;SDS011;11197;53.110;8.468;2023-03-31T18:07:35;8.27;;;3.20;;
22064;SDS011;11197;53.110;8.468;2023-03-31T18:10:03;9.57;;;3.38;;
22064;SDS011;11197;53.110;8.468;2023-03-31T18:12:31;8.73;;;3.47;;
22064;SDS011;11197;53.110;8.468;2023-03-31T18:14:58;10.15;;;3.22;;
22064;SDS011;11197;53.110;8.468;2023-03-31T18:17:24;8.60;;;3.42;;